createdAt,value
2017-05-28T00:02:09.503Z,17.60
2017-05-28T00:04:38.386Z,17.60
2017-05-28T00:07:07.276Z,17.40
2017-05-28T00:09:36.172Z,17.50
2017-05-28T00:12:04.992Z,17.50
2017-05-28T00:14:33.858Z,17.50
2017-05-28T00:17:02.734Z,17.60
2017-05-28T00:19:31.670Z,17.50
2017-05-28T00:22:00.555Z,17.50
2017-05-28T00:24:29.459Z,17.30
2017-05-28T00:26:58.295Z,17.40
2017-05-28T00:29:27.169Z,17.50
2017-05-28T00:31:56.050Z,17.40
2017-05-28T00:34:24.935Z,17.40
2017-05-28T00:36:53.794Z,17.40
2017-05-28T00:39:22.632Z,17.40
2017-05-28T00:41:51.483Z,17.40
2017-05-28T00:44:20.336Z,17.50
2017-05-28T00:46:48.446Z,17.50
2017-05-28T00:49:17.286Z,17.30
2017-05-28T00:51:46.166Z,17.30
2017-05-28T00:54:15.026Z,17.40
2017-05-28T00:56:43.852Z,17.40
2017-05-28T00:59:12.719Z,17.40
2017-05-28T01:01:41.568Z,17.50
2017-05-28T01:04:10.461Z,17.40
2017-05-28T01:06:39.310Z,17.40
2017-05-28T01:09:08.175Z,17.20
2017-05-28T01:11:37.075Z,17.20
2017-05-28T01:14:05.906Z,17.20
2017-05-28T01:16:34.787Z,17.00
2017-05-28T01:19:03.622Z,17.10
2017-05-28T01:21:32.453Z,17.00
2017-05-28T01:24:00.524Z,17.00
2017-05-28T01:26:29.388Z,16.80
2017-05-28T01:28:58.225Z,16.70
2017-05-28T01:31:27.061Z,16.60
2017-05-28T01:33:55.180Z,16.60
2017-05-28T01:36:24.016Z,16.40
2017-05-28T01:38:52.851Z,16.40
2017-05-28T01:41:21.692Z,16.40
2017-05-28T01:43:50.548Z,16.60
2017-05-28T01:46:19.393Z,16.40
2017-05-28T01:48:48.247Z,16.40
2017-05-28T01:51:17.111Z,16.30
2017-05-28T01:53:45.951Z,16.30
2017-05-28T01:56:14.783Z,16.10
2017-05-28T01:58:43.658Z,15.80
2017-05-28T02:01:12.495Z,15.30
2017-05-28T02:03:41.437Z,15.50
2017-05-28T02:06:10.286Z,15.70
2017-05-28T02:08:39.128Z,15.70
2017-05-28T02:11:07.987Z,15.50
2017-05-28T02:13:36.843Z,15.50
2017-05-28T02:16:05.688Z,15.60
2017-05-28T02:18:34.539Z,15.80
2017-05-28T02:21:03.419Z,15.80
2017-05-28T02:23:32.355Z,15.80
2017-05-28T02:26:01.220Z,15.90
2017-05-28T02:28:30.091Z,15.80
2017-05-28T02:30:58.956Z,15.70
2017-05-28T02:33:27.823Z,15.70
2017-05-28T02:35:56.703Z,15.30
2017-05-28T02:38:25.544Z,15.30
2017-05-28T02:40:54.409Z,15.30
2017-05-28T02:43:23.274Z,15.30
2017-05-28T02:45:52.128Z,15.30
2017-05-28T02:48:20.964Z,15.30
2017-05-28T02:50:49.807Z,15.10
2017-05-28T02:53:18.666Z,15.30
2017-05-28T02:55:47.525Z,15.30
2017-05-28T02:58:16.368Z,15.40
2017-05-28T03:00:45.238Z,15.40
2017-05-28T03:03:14.157Z,15.30
2017-05-28T03:05:43.000Z,15.40
2017-05-28T03:08:11.848Z,15.40
2017-05-28T03:10:40.675Z,15.50
2017-05-28T03:13:09.531Z,15.50
2017-05-28T03:15:38.387Z,15.50
2017-05-28T03:18:07.246Z,15.50
2017-05-28T03:20:36.087Z,15.50
2017-05-28T03:23:05.376Z,15.50
2017-05-28T03:25:34.187Z,15.50
2017-05-28T03:28:03.028Z,15.40
2017-05-28T03:30:31.873Z,15.40
2017-05-28T03:33:00.703Z,15.30
2017-05-28T03:35:29.567Z,15.30
2017-05-28T03:37:58.412Z,15.20
2017-05-28T03:40:27.240Z,15.00
2017-05-28T03:42:56.087Z,14.60
2017-05-28T03:45:24.912Z,14.50
2017-05-28T03:47:53.754Z,14.50
2017-05-28T03:50:22.592Z,14.80
2017-05-28T03:52:51.428Z,14.90
2017-05-28T03:55:20.270Z,15.00
2017-05-28T03:57:49.111Z,15.00
2017-05-28T04:00:17.971Z,15.10
2017-05-28T04:02:46.813Z,15.20
2017-05-28T04:05:15.684Z,15.20
2017-05-28T04:07:44.542Z,15.30
2017-05-28T04:10:13.379Z,15.30
2017-05-28T04:12:42.220Z,15.40
2017-05-28T04:15:11.034Z,15.60
2017-05-28T04:17:40.052Z,15.60
2017-05-28T04:20:08.959Z,15.50
2017-05-28T04:22:37.824Z,15.80
2017-05-28T04:25:06.655Z,15.90
2017-05-28T04:27:35.502Z,16.30
2017-05-28T04:30:04.358Z,16.30
2017-05-28T04:32:33.176Z,16.50
2017-05-28T04:35:02.007Z,16.70
2017-05-28T04:37:30.855Z,16.70
2017-05-28T04:39:59.749Z,16.70
2017-05-28T04:42:28.579Z,16.90
2017-05-28T04:44:57.436Z,17.20
2017-05-28T04:47:26.281Z,17.20
2017-05-28T04:49:55.107Z,17.30
2017-05-28T04:52:23.961Z,17.40
2017-05-28T04:54:52.787Z,17.40
2017-05-28T04:57:21.639Z,17.60
2017-05-28T04:59:50.564Z,17.70
2017-05-28T05:02:19.620Z,17.60
2017-05-28T05:04:48.512Z,17.70
2017-05-28T05:07:17.331Z,17.70
2017-05-28T05:09:46.186Z,17.70
2017-05-28T05:12:15.012Z,17.80
2017-05-28T05:14:43.900Z,18.10
2017-05-28T05:17:12.724Z,18.20
2017-05-28T05:19:41.675Z,18.40
2017-05-28T05:22:10.520Z,18.40
2017-05-28T05:24:39.393Z,18.40
2017-05-28T05:27:08.229Z,18.50
2017-05-28T05:29:37.063Z,18.60
2017-05-28T05:32:05.904Z,18.60
2017-05-28T05:34:34.771Z,18.80
2017-05-28T05:37:03.607Z,19.00
2017-05-28T05:39:32.447Z,19.10
2017-05-28T05:42:01.293Z,19.00
2017-05-28T05:44:30.131Z,19.10
2017-05-28T05:46:58.972Z,19.30
2017-05-28T05:49:27.816Z,19.20
2017-05-28T05:51:56.705Z,19.50
2017-05-28T05:54:25.536Z,19.70
2017-05-28T05:56:54.383Z,19.80
2017-05-28T05:59:23.208Z,20.00
2017-05-28T06:01:52.075Z,19.70
2017-05-28T06:04:20.912Z,19.70
2017-05-28T06:06:49.749Z,19.60
2017-05-28T06:09:18.605Z,19.80
2017-05-28T06:11:47.441Z,19.90
2017-05-28T06:14:16.300Z,19.80
2017-05-28T06:16:45.141Z,20.10
2017-05-28T06:19:14.008Z,20.20
2017-05-28T06:21:42.834Z,20.30
2017-05-28T06:24:11.685Z,20.20
2017-05-28T06:26:40.549Z,20.50
2017-05-28T06:29:09.384Z,20.20
2017-05-28T06:31:38.225Z,20.60
2017-05-28T06:34:07.045Z,20.90
2017-05-28T06:36:35.902Z,21.10
2017-05-28T06:39:04.741Z,20.90
2017-05-28T06:41:33.567Z,21.40
2017-05-28T06:44:02.398Z,21.80
2017-05-28T06:46:31.237Z,22.10
2017-05-28T06:49:00.079Z,22.20
2017-05-28T06:51:28.944Z,22.10
2017-05-28T06:53:57.785Z,22.30
2017-05-28T06:56:26.638Z,22.50
2017-05-28T06:58:55.501Z,22.60
2017-05-28T07:01:24.351Z,22.30
2017-05-28T07:03:53.213Z,22.50
2017-05-28T07:06:22.063Z,22.60
2017-05-28T07:08:50.909Z,22.60
2017-05-28T07:11:19.755Z,22.60
2017-05-28T07:13:48.607Z,22.60
2017-05-28T07:16:17.451Z,22.70
2017-05-28T07:18:46.306Z,22.70
2017-05-28T07:21:15.142Z,22.80
2017-05-28T07:23:44.023Z,22.80
2017-05-28T07:26:12.878Z,23.10
2017-05-28T07:28:41.708Z,23.50
2017-05-28T07:31:10.551Z,23.40
2017-05-28T07:33:39.411Z,23.40
2017-05-28T07:36:08.244Z,23.70
2017-05-28T07:38:37.083Z,24.00
2017-05-28T07:41:05.920Z,24.20
2017-05-28T07:43:34.779Z,24.50
2017-05-28T07:46:03.612Z,24.50
2017-05-28T07:48:32.455Z,23.90
2017-05-28T07:51:01.293Z,24.20
2017-05-28T07:53:30.145Z,24.60
2017-05-28T07:55:58.981Z,25.00
2017-05-28T07:58:27.811Z,24.90
2017-05-28T08:00:56.647Z,25.40
2017-05-28T08:03:25.496Z,25.40
2017-05-28T08:05:54.348Z,25.60
2017-05-28T08:08:23.177Z,25.90
2017-05-28T08:10:52.054Z,25.90
2017-05-28T08:13:20.901Z,25.80
2017-05-28T08:15:49.870Z,25.40
2017-05-28T08:18:18.704Z,25.00
2017-05-28T08:20:47.546Z,25.20
2017-05-28T08:23:16.383Z,25.70
2017-05-28T08:25:45.294Z,25.80
2017-05-28T08:28:14.227Z,26.40
2017-05-28T08:30:43.093Z,26.50
2017-05-28T08:33:11.919Z,25.90
2017-05-28T08:35:40.759Z,25.40
2017-05-28T08:38:09.604Z,25.30
2017-05-28T08:40:38.436Z,25.80
2017-05-28T08:43:07.268Z,25.90
2017-05-28T08:45:36.136Z,25.70
2017-05-28T08:48:04.957Z,26.10
2017-05-28T08:50:33.798Z,26.50
2017-05-28T08:53:02.635Z,26.50
2017-05-28T08:55:31.469Z,27.10
2017-05-28T08:58:00.299Z,26.80
2017-05-28T09:00:29.141Z,26.70
2017-05-28T09:02:57.995Z,26.90
2017-05-28T09:05:26.827Z,27.10
2017-05-28T09:07:55.659Z,27.30
2017-05-28T09:10:24.513Z,27.20
2017-05-28T09:12:53.349Z,27.60
2017-05-28T09:15:22.205Z,28.40
2017-05-28T09:17:51.031Z,27.90
2017-05-28T09:20:19.889Z,27.70
2017-05-28T09:22:48.726Z,27.40
2017-05-28T09:25:17.563Z,27.30
2017-05-28T09:27:46.399Z,27.20
2017-05-28T09:30:15.246Z,27.10
2017-05-28T09:32:44.296Z,27.20
2017-05-28T09:35:13.135Z,27.00
2017-05-28T09:37:41.986Z,27.10
2017-05-28T09:40:10.830Z,27.30
2017-05-28T09:42:39.652Z,27.10
2017-05-28T09:45:08.507Z,27.50
2017-05-28T09:47:37.351Z,27.10
2017-05-28T09:50:06.188Z,26.80
2017-05-28T09:52:35.024Z,27.00
2017-05-28T09:55:03.951Z,27.00
2017-05-28T09:57:32.837Z,28.10
2017-05-28T10:00:01.706Z,28.40
2017-05-28T10:02:30.532Z,28.10
2017-05-28T10:04:59.394Z,28.30
2017-05-28T10:07:28.240Z,28.70
2017-05-28T10:09:57.095Z,29.20
2017-05-28T10:12:25.960Z,29.00
2017-05-28T10:14:54.803Z,28.80
2017-05-28T10:17:23.635Z,28.40
2017-05-28T10:19:52.487Z,27.70
2017-05-28T10:22:21.323Z,28.20
2017-05-28T10:24:49.553Z,28.20
2017-05-28T10:27:18.362Z,29.00
2017-05-28T10:29:47.220Z,28.50
2017-05-28T10:32:16.055Z,29.00
2017-05-28T10:34:44.894Z,28.80
2017-05-28T10:37:13.945Z,28.00
2017-05-28T10:39:42.024Z,27.90
2017-05-28T10:42:10.887Z,29.00
2017-05-28T10:44:39.064Z,29.00
2017-05-28T10:47:08.059Z,29.70
2017-05-28T10:49:36.939Z,29.50
2017-05-28T10:52:05.779Z,30.20
2017-05-28T10:54:34.629Z,30.20
2017-05-28T10:57:03.461Z,30.40
2017-05-28T10:59:32.301Z,30.20
2017-05-28T11:02:01.133Z,29.70
2017-05-28T11:04:29.992Z,30.10
2017-05-28T11:06:58.875Z,29.80
2017-05-28T11:09:28.698Z,29.80
2017-05-28T11:11:57.535Z,30.00
2017-05-28T11:14:26.643Z,30.00
2017-05-28T11:16:55.893Z,30.70
2017-05-28T11:19:24.728Z,31.00
2017-05-28T11:21:53.596Z,30.40
2017-05-28T11:24:22.419Z,30.20
2017-05-28T11:26:50.487Z,30.20
2017-05-28T11:29:19.331Z,30.60
2017-05-28T11:31:48.171Z,31.10
2017-05-28T11:34:17.012Z,31.00
2017-05-28T11:36:45.840Z,31.60
2017-05-28T11:39:14.711Z,30.90
2017-05-28T11:41:43.548Z,30.90
2017-05-28T11:44:12.385Z,31.30
2017-05-28T11:46:41.244Z,31.50
2017-05-28T11:49:10.079Z,31.80
2017-05-28T11:51:38.924Z,31.00
2017-05-28T11:54:07.755Z,31.20
2017-05-28T11:56:36.626Z,31.20
2017-05-28T11:59:05.528Z,30.70
2017-05-28T12:01:34.319Z,30.80
2017-05-28T12:04:03.174Z,31.20
2017-05-28T12:06:32.049Z,31.30
2017-05-28T12:09:00.889Z,32.30
2017-05-28T12:11:29.724Z,32.60
2017-05-28T12:13:58.560Z,32.20
2017-05-28T12:16:27.391Z,31.40
2017-05-28T12:18:56.243Z,31.50
2017-05-28T12:21:25.079Z,30.80
2017-05-28T12:23:53.913Z,31.80
2017-05-28T12:26:22.748Z,31.50
2017-05-28T12:28:51.589Z,32.40
2017-05-28T12:31:20.422Z,32.60
2017-05-28T12:33:49.280Z,32.90
2017-05-28T12:36:18.107Z,32.60
2017-05-28T12:38:46.940Z,31.80
2017-05-28T12:41:15.786Z,31.30
2017-05-28T12:43:44.615Z,31.60
2017-05-28T12:46:13.469Z,30.80
2017-05-28T12:48:42.295Z,30.30
2017-05-28T12:51:11.127Z,31.00
2017-05-28T12:53:39.982Z,31.50
2017-05-28T12:56:08.804Z,32.00
2017-05-28T12:58:37.659Z,32.70
2017-05-28T13:01:06.488Z,33.20
2017-05-28T13:03:35.333Z,32.60
2017-05-28T13:06:03.400Z,32.50
2017-05-28T13:08:32.227Z,32.20
2017-05-28T13:11:01.086Z,31.50
2017-05-28T13:13:29.903Z,31.00
2017-05-28T13:15:58.738Z,31.10
2017-05-28T13:18:27.567Z,31.10
2017-05-28T13:20:56.395Z,31.40
2017-05-28T13:23:25.244Z,31.50
2017-05-28T13:25:54.075Z,32.00
2017-05-28T13:28:22.908Z,31.60
2017-05-28T13:30:51.745Z,30.30
2017-05-28T13:33:19.803Z,30.30
2017-05-28T13:35:48.660Z,31.80
2017-05-28T13:38:17.493Z,32.10
2017-05-28T13:40:46.315Z,31.60
2017-05-28T13:43:15.163Z,31.40
2017-05-28T13:45:44.000Z,31.60
2017-05-28T13:48:12.847Z,31.80
2017-05-28T13:50:41.676Z,31.80
2017-05-28T13:53:10.512Z,31.70
2017-05-28T13:55:38.577Z,31.70
2017-05-28T13:58:07.401Z,31.20
2017-05-28T14:00:36.249Z,30.80
2017-05-28T14:03:05.083Z,30.60
2017-05-28T14:05:33.908Z,30.50
2017-05-28T14:08:02.751Z,30.60
2017-05-28T14:10:31.587Z,30.60
2017-05-28T14:13:00.469Z,30.50
2017-05-28T14:15:29.288Z,30.40
2017-05-28T14:17:58.113Z,30.10
2017-05-28T14:20:26.978Z,30.20
2017-05-28T14:22:55.775Z,30.10
2017-05-28T14:25:23.870Z,30.10
2017-05-28T14:27:52.702Z,29.80
2017-05-28T14:30:22.537Z,29.80
2017-05-28T14:32:51.374Z,29.80
2017-05-28T14:35:20.199Z,29.90
2017-05-28T14:37:49.039Z,29.80
2017-05-28T14:40:17.870Z,29.60
2017-05-28T14:42:46.696Z,29.70
2017-05-28T14:45:15.532Z,29.60
2017-05-28T14:47:44.362Z,29.60
2017-05-28T14:50:13.228Z,29.60
2017-05-28T14:52:42.064Z,29.60
2017-05-28T14:55:10.901Z,29.40
2017-05-28T14:57:39.766Z,29.40
2017-05-28T15:00:08.765Z,29.10
2017-05-28T15:02:37.611Z,29.10
2017-05-28T15:05:06.441Z,29.20
2017-05-28T15:07:35.278Z,29.20
2017-05-28T15:10:04.108Z,29.20
2017-05-28T15:12:32.952Z,29.20
2017-05-28T15:15:01.795Z,29.20
2017-05-28T15:17:30.627Z,29.20
2017-05-28T15:19:59.475Z,29.10
2017-05-28T15:22:28.327Z,28.90
2017-05-28T15:24:57.156Z,28.80
2017-05-28T15:27:26.903Z,28.80
2017-05-28T15:29:55.739Z,28.80
2017-05-28T15:32:24.569Z,28.80
2017-05-28T15:34:53.406Z,28.80
2017-05-28T15:37:22.235Z,28.70
2017-05-28T15:39:51.083Z,28.70
2017-05-28T15:42:19.918Z,28.60
2017-05-28T15:44:48.747Z,28.50
2017-05-28T15:47:17.576Z,28.60
2017-05-28T15:49:46.412Z,28.50
2017-05-28T15:52:15.271Z,28.50
2017-05-28T15:54:44.101Z,28.50
2017-05-28T15:57:12.927Z,28.40
2017-05-28T15:59:41.767Z,28.50
2017-05-28T16:02:10.595Z,28.50
2017-05-28T16:04:39.459Z,28.50
2017-05-28T16:07:08.279Z,28.50
2017-05-28T16:09:37.104Z,28.40
2017-05-28T16:12:05.935Z,28.40
2017-05-28T16:14:34.771Z,28.30
2017-05-28T16:17:03.617Z,28.40
2017-05-28T16:19:32.442Z,28.40
2017-05-28T16:22:01.280Z,28.40
2017-05-28T16:24:30.111Z,28.30
2017-05-28T16:26:58.944Z,28.30
2017-05-28T16:29:27.956Z,28.30
2017-05-28T16:31:56.784Z,28.40
2017-05-28T16:34:24.857Z,28.30
2017-05-28T16:36:53.699Z,28.50
2017-05-28T16:39:22.532Z,28.50
2017-05-28T16:41:51.373Z,28.50
2017-05-28T16:44:20.199Z,28.40
2017-05-28T16:46:48.266Z,28.40
2017-05-28T16:49:17.107Z,28.30
2017-05-28T16:51:45.931Z,28.40
2017-05-28T16:54:14.793Z,28.50
2017-05-28T16:56:43.623Z,28.50
2017-05-28T16:59:12.451Z,28.60
2017-05-28T17:01:41.295Z,28.50
2017-05-28T17:04:10.130Z,28.40
2017-05-28T17:06:38.198Z,28.40
2017-05-28T17:09:07.021Z,28.20
2017-05-28T17:11:35.895Z,28.30
2017-05-28T17:14:04.727Z,28.30
2017-05-28T17:16:33.559Z,28.20
2017-05-28T17:19:02.400Z,28.10
2017-05-28T17:21:31.225Z,28.10
2017-05-28T17:24:00.076Z,28.10
2017-05-28T17:26:28.902Z,28.10
2017-05-28T17:28:57.756Z,28.00
2017-05-28T17:31:26.578Z,28.00
2017-05-28T17:33:55.409Z,28.00
2017-05-28T17:36:24.245Z,28.00
2017-05-28T17:38:53.079Z,27.90
2017-05-28T17:41:21.929Z,27.90
2017-05-28T17:43:50.761Z,27.80
2017-05-28T17:46:19.592Z,27.70
2017-05-28T17:48:48.422Z,27.70
2017-05-28T17:51:17.253Z,27.60
2017-05-28T17:53:46.078Z,27.60
2017-05-28T17:56:14.915Z,27.40
2017-05-28T17:58:43.760Z,27.50
2017-05-28T18:01:12.582Z,27.40
2017-05-28T18:03:41.417Z,27.30
2017-05-28T18:06:10.261Z,27.10
2017-05-28T18:08:39.119Z,26.90
2017-05-28T18:11:07.952Z,26.90
2017-05-28T18:13:36.776Z,26.80
2017-05-28T18:16:05.625Z,26.70
2017-05-28T18:18:34.452Z,26.60
2017-05-28T18:21:02.568Z,26.50
2017-05-28T18:23:31.403Z,26.10
2017-05-28T18:26:00.256Z,26.00
2017-05-28T18:28:29.095Z,25.90
2017-05-28T18:30:57.931Z,25.60
2017-05-28T18:33:26.811Z,25.40
2017-05-28T18:35:55.646Z,25.30
2017-05-28T18:38:24.501Z,25.30
2017-05-28T18:40:53.337Z,25.30
2017-05-28T18:43:22.196Z,25.30
2017-05-28T18:45:51.053Z,25.20
2017-05-28T18:48:19.892Z,25.10
2017-05-28T18:50:48.739Z,25.10
2017-05-28T18:53:17.640Z,25.00
2017-05-28T18:55:46.478Z,25.00
2017-05-28T18:58:15.993Z,24.80
2017-05-28T19:00:44.852Z,24.80
2017-05-28T19:03:13.693Z,24.90
2017-05-28T19:05:42.533Z,24.80
2017-05-28T19:08:11.385Z,24.60
2017-05-28T19:10:40.213Z,24.50
2017-05-28T19:13:09.063Z,24.30
2017-05-28T19:15:37.896Z,24.10
2017-05-28T19:18:06.740Z,24.10
2017-05-28T19:20:35.568Z,24.00
2017-05-28T19:23:04.415Z,23.80
2017-05-28T19:25:33.270Z,23.80
2017-05-28T19:28:02.105Z,23.90
2017-05-28T19:30:30.977Z,23.80
2017-05-28T19:32:59.811Z,23.80
2017-05-28T19:35:28.647Z,23.80
2017-05-28T19:37:57.488Z,23.80
2017-05-28T19:40:26.333Z,23.70
2017-05-28T19:42:55.170Z,23.30
2017-05-28T19:45:24.005Z,23.00
2017-05-28T19:47:52.857Z,23.10
2017-05-28T19:50:21.684Z,22.90
2017-05-28T19:52:50.519Z,22.70
2017-05-28T19:55:19.378Z,22.80
2017-05-28T19:57:48.271Z,22.90
2017-05-28T20:00:16.365Z,22.80
2017-05-28T20:02:45.190Z,23.10
2017-05-28T20:05:14.060Z,23.10
2017-05-28T20:07:42.882Z,23.10
2017-05-28T20:10:11.719Z,23.00
2017-05-28T20:12:40.583Z,22.90
2017-05-28T20:15:09.428Z,22.80
2017-05-28T20:17:38.281Z,22.80
2017-05-28T20:20:07.107Z,22.60
2017-05-28T20:22:35.966Z,22.50
2017-05-28T20:25:04.903Z,22.30
2017-05-28T20:27:34.124Z,22.00
2017-05-28T20:30:02.967Z,21.70
2017-05-28T20:32:31.798Z,21.50
2017-05-28T20:35:00.636Z,21.20
2017-05-28T20:37:29.483Z,21.50
2017-05-28T20:39:58.319Z,21.70
2017-05-28T20:42:27.164Z,21.40
2017-05-28T20:44:56.001Z,21.40
2017-05-28T20:47:24.843Z,21.50
2017-05-28T20:49:53.676Z,21.50
2017-05-28T20:52:21.745Z,21.50
2017-05-28T20:54:50.582Z,21.50
2017-05-28T20:57:19.426Z,21.50
2017-05-28T20:59:48.256Z,21.40
2017-05-28T21:02:17.079Z,21.30
2017-05-28T21:04:45.927Z,21.30
2017-05-28T21:07:14.755Z,21.00
2017-05-28T21:09:43.599Z,21.10
2017-05-28T21:12:12.436Z,21.00
2017-05-28T21:14:41.287Z,20.80
2017-05-28T21:17:10.132Z,20.80
2017-05-28T21:19:38.969Z,20.60
2017-05-28T21:22:07.809Z,20.50
2017-05-28T21:24:36.636Z,20.60
2017-05-28T21:27:05.492Z,20.60
2017-05-28T21:29:34.320Z,20.60
2017-05-28T21:32:03.196Z,20.70
2017-05-28T21:34:32.091Z,20.70
2017-05-28T21:37:01.616Z,20.80
2017-05-28T21:39:30.504Z,20.80
2017-05-28T21:41:59.349Z,20.80
2017-05-28T21:44:28.194Z,20.50
2017-05-28T21:46:57.049Z,20.40
2017-05-28T21:49:26.183Z,20.20
2017-05-28T21:51:55.358Z,20.20
2017-05-28T21:54:24.414Z,20.30
2017-05-28T21:56:52.756Z,20.30
2017-05-28T21:59:22.016Z,20.40
2017-05-28T22:01:50.491Z,20.40
2017-05-28T22:04:19.567Z,20.50
2017-05-28T22:06:48.719Z,20.50
2017-05-28T22:09:17.525Z,20.50
2017-05-28T22:11:46.359Z,20.40
2017-05-28T22:14:15.197Z,20.40
2017-05-28T22:16:44.032Z,20.40
2017-05-28T22:19:12.879Z,20.40
2017-05-28T22:21:41.722Z,20.30
2017-05-28T22:24:09.826Z,20.30
2017-05-28T22:26:38.651Z,20.10
2017-05-28T22:29:07.488Z,20.10
2017-05-28T22:31:36.331Z,20.10
2017-05-28T22:34:05.171Z,20.20
2017-05-28T22:36:34.023Z,20.20
2017-05-28T22:39:02.876Z,20.30
2017-05-28T22:41:31.738Z,20.30
2017-05-28T22:44:00.578Z,20.30
2017-05-28T22:46:29.405Z,20.30
2017-05-28T22:48:58.246Z,20.20
2017-05-28T22:51:27.076Z,20.10
2017-05-28T22:53:55.922Z,20.00
2017-05-28T22:56:24.763Z,20.00
2017-05-28T22:58:53.588Z,19.90
2017-05-28T23:01:22.449Z,19.90
2017-05-28T23:03:51.349Z,19.70
2017-05-28T23:06:20.208Z,19.60
2017-05-28T23:08:49.051Z,19.60
2017-05-28T23:11:17.884Z,19.50
2017-05-28T23:13:46.724Z,19.40
2017-05-28T23:16:15.547Z,19.40
2017-05-28T23:18:44.383Z,19.40
2017-05-28T23:21:13.215Z,19.20
2017-05-28T23:23:42.067Z,19.10
2017-05-28T23:26:10.907Z,19.10
2017-05-28T23:28:39.749Z,19.30
2017-05-28T23:31:08.604Z,19.20
2017-05-28T23:33:37.429Z,19.30
2017-05-28T23:36:06.264Z,19.30
2017-05-28T23:38:35.095Z,19.40
2017-05-28T23:41:03.971Z,19.40
2017-05-28T23:43:32.802Z,19.30
2017-05-28T23:46:01.624Z,19.30
2017-05-28T23:48:30.477Z,19.20
2017-05-28T23:50:59.353Z,19.20
2017-05-28T23:53:28.190Z,19.20
2017-05-28T23:55:57.020Z,19.10
2017-05-28T23:58:25.871Z,19.20
